createdAt,value
2018-01-21T00:00:35.233Z,944.11
2018-01-21T00:01:35.173Z,944.02
2018-01-21T00:02:35.111Z,943.96
2018-01-21T00:03:35.048Z,943.97
2018-01-21T00:04:34.987Z,943.98
2018-01-21T00:05:34.923Z,944.08
2018-01-21T00:06:34.863Z,944.01
2018-01-21T00:07:34.802Z,944.00
2018-01-21T00:08:34.740Z,944.06
2018-01-21T00:09:34.678Z,944.24
2018-01-21T00:10:34.622Z,944.28
2018-01-21T00:11:34.564Z,944.41
2018-01-21T00:12:34.495Z,944.44
2018-01-21T00:13:34.431Z,944.36
2018-01-21T00:14:34.370Z,944.45
2018-01-21T00:15:34.310Z,944.43
2018-01-21T00:16:34.249Z,944.40
2018-01-21T00:17:34.187Z,944.32
2018-01-21T00:18:34.126Z,944.41
2018-01-21T00:19:34.065Z,944.42
2018-01-21T00:20:34.005Z,944.45
2018-01-21T00:21:33.947Z,944.48
2018-01-21T00:22:33.880Z,944.57
2018-01-21T00:23:33.819Z,944.60
2018-01-21T00:24:33.757Z,944.67
2018-01-21T00:25:33.699Z,944.66
2018-01-21T00:26:33.634Z,944.66
2018-01-21T00:27:33.574Z,944.70
2018-01-21T00:28:33.517Z,944.71
2018-01-21T00:29:33.449Z,944.75
2018-01-21T00:30:33.388Z,944.81
2018-01-21T00:31:33.329Z,944.82
2018-01-21T00:32:33.270Z,944.86
2018-01-21T00:33:34.097Z,944.87
2018-01-21T00:34:33.145Z,944.91
2018-01-21T00:35:33.082Z,944.83
2018-01-21T00:36:33.019Z,944.86
2018-01-21T00:37:32.959Z,944.94
2018-01-21T00:38:32.898Z,944.89
2018-01-21T00:39:32.834Z,944.88
2018-01-21T00:40:32.775Z,944.89
2018-01-21T00:41:32.742Z,945.04
2018-01-21T00:42:32.650Z,945.00
2018-01-21T00:43:32.591Z,945.07
2018-01-21T00:44:32.528Z,945.10
2018-01-21T00:45:32.466Z,945.17
2018-01-21T00:46:32.407Z,945.23
2018-01-21T00:47:32.345Z,945.18
2018-01-21T00:48:32.284Z,945.20
2018-01-21T00:49:32.223Z,945.26
2018-01-21T00:50:32.159Z,945.22
2018-01-21T00:51:32.097Z,945.10
2018-01-21T00:52:32.050Z,945.13
2018-01-21T00:53:31.975Z,945.26
2018-01-21T00:54:31.913Z,945.27
2018-01-21T00:55:31.855Z,945.29
2018-01-21T00:56:31.791Z,945.35
2018-01-21T00:57:31.731Z,945.35
2018-01-21T00:58:31.672Z,945.33
2018-01-21T00:59:31.607Z,945.32
2018-01-21T01:00:31.548Z,945.31
2018-01-21T01:01:31.489Z,945.42
2018-01-21T01:02:31.424Z,945.49
2018-01-21T01:03:31.407Z,945.50
2018-01-21T01:04:31.322Z,945.51
2018-01-21T01:05:31.242Z,945.53
2018-01-21T01:06:31.177Z,945.54
2018-01-21T01:07:31.116Z,945.52
2018-01-21T01:08:31.055Z,945.54
2018-01-21T01:09:30.992Z,945.58
2018-01-21T01:10:30.933Z,945.66
2018-01-21T01:11:30.871Z,945.67
2018-01-21T01:12:30.808Z,945.73
2018-01-21T01:13:30.747Z,945.74
2018-01-21T01:14:30.692Z,945.88
2018-01-21T01:15:30.624Z,945.83
2018-01-21T01:16:30.564Z,945.91
2018-01-21T01:17:30.502Z,945.90
2018-01-21T01:18:30.439Z,945.90
2018-01-21T01:19:30.380Z,945.96
2018-01-21T01:20:30.319Z,945.95
2018-01-21T01:21:30.255Z,945.96
2018-01-21T01:22:30.195Z,945.98
2018-01-21T01:23:30.131Z,946.04
2018-01-21T01:24:30.072Z,946.04
2018-01-21T01:25:30.068Z,946.14
2018-01-21T01:26:29.949Z,946.17
2018-01-21T01:27:29.890Z,946.17
2018-01-21T01:28:29.826Z,946.14
2018-01-21T01:29:29.765Z,946.10
2018-01-21T01:30:29.703Z,946.15
2018-01-21T01:31:29.642Z,946.24
2018-01-21T01:32:29.581Z,946.23
2018-01-21T01:33:29.518Z,946.21
2018-01-21T01:34:29.456Z,946.32
2018-01-21T01:35:29.398Z,946.30
2018-01-21T01:36:29.386Z,946.33
2018-01-21T01:37:29.274Z,946.33
2018-01-21T01:38:29.213Z,946.36
2018-01-21T01:39:29.152Z,946.40
2018-01-21T01:40:29.092Z,946.42
2018-01-21T01:41:29.028Z,946.48
2018-01-21T01:42:28.966Z,946.48
2018-01-21T01:43:28.906Z,946.48
2018-01-21T01:44:28.844Z,946.52
2018-01-21T01:45:28.783Z,946.56
2018-01-21T01:46:28.722Z,946.58
2018-01-21T01:47:28.685Z,946.62
2018-01-21T01:48:28.601Z,946.60
2018-01-21T01:49:28.537Z,946.58
2018-01-21T01:50:28.478Z,946.65
2018-01-21T01:51:28.415Z,946.68
2018-01-21T01:52:28.357Z,946.68
2018-01-21T01:53:28.304Z,946.75
2018-01-21T01:54:28.232Z,946.89
2018-01-21T01:55:28.171Z,946.83
2018-01-21T01:56:28.110Z,946.87
2018-01-21T01:57:28.049Z,946.87
2018-01-21T01:58:28.032Z,946.85
2018-01-21T01:59:27.926Z,946.90
2018-01-21T02:00:27.865Z,946.91
2018-01-21T02:01:27.803Z,947.07
2018-01-21T02:02:27.745Z,947.01
2018-01-21T02:03:27.683Z,947.11
2018-01-21T02:04:27.620Z,947.15
2018-01-21T02:05:27.561Z,947.12
2018-01-21T02:06:27.498Z,947.15
2018-01-21T02:07:27.436Z,947.25
2018-01-21T02:08:27.422Z,947.21
2018-01-21T02:09:27.314Z,947.23
2018-01-21T02:10:27.253Z,947.24
2018-01-21T02:11:27.192Z,947.29
2018-01-21T02:12:27.129Z,947.34
2018-01-21T02:13:27.068Z,947.33
2018-01-21T02:14:27.007Z,947.32
2018-01-21T02:15:26.946Z,947.34
2018-01-21T02:16:26.886Z,947.46
2018-01-21T02:17:26.822Z,947.44
2018-01-21T02:18:26.762Z,947.48
2018-01-21T02:19:26.701Z,947.54
2018-01-21T02:20:26.725Z,947.68
2018-01-21T02:21:26.577Z,947.64
2018-01-21T02:22:26.517Z,947.67
2018-01-21T02:23:26.457Z,947.71
2018-01-21T02:24:26.393Z,947.81
2018-01-21T02:25:26.334Z,947.76
2018-01-21T02:26:26.274Z,947.79
2018-01-21T02:27:26.209Z,947.86
2018-01-21T02:28:26.147Z,947.80
2018-01-21T02:29:26.086Z,947.81
2018-01-21T02:30:26.025Z,947.82
2018-01-21T02:31:26.021Z,947.89
2018-01-21T02:32:25.903Z,948.02
2018-01-21T02:33:25.838Z,947.98
2018-01-21T02:34:25.776Z,947.99
2018-01-21T02:35:25.717Z,948.09
2018-01-21T02:36:25.656Z,948.05
2018-01-21T02:37:25.594Z,948.14
2018-01-21T02:38:25.533Z,948.08
2018-01-21T02:39:25.469Z,948.22
2018-01-21T02:40:25.409Z,948.18
2018-01-21T02:41:25.348Z,948.35
2018-01-21T02:42:25.279Z,948.17
2018-01-21T02:43:25.225Z,948.25
2018-01-21T02:44:25.255Z,948.24
2018-01-21T02:45:25.100Z,948.26
2018-01-21T02:46:25.036Z,948.27
2018-01-21T02:47:24.976Z,948.37
2018-01-21T02:48:24.914Z,948.39
2018-01-21T02:49:24.852Z,948.56
2018-01-21T02:50:24.792Z,948.48
2018-01-21T02:51:24.727Z,948.57
2018-01-21T02:52:24.664Z,948.54
2018-01-21T02:53:24.603Z,948.48
2018-01-21T02:54:24.540Z,948.51
2018-01-21T02:55:24.480Z,948.55
2018-01-21T02:56:24.416Z,948.57
2018-01-21T02:57:24.353Z,948.62
2018-01-21T02:58:24.292Z,948.63
2018-01-21T02:59:24.229Z,948.62
2018-01-21T03:00:24.168Z,948.59
2018-01-21T03:01:24.103Z,948.79
2018-01-21T03:02:24.042Z,948.78
2018-01-21T03:03:23.980Z,948.79
2018-01-21T03:04:23.917Z,948.91
2018-01-21T03:05:23.857Z,948.76
2018-01-21T03:06:23.793Z,948.83
2018-01-21T03:07:23.731Z,948.95
2018-01-21T03:08:23.689Z,948.92
2018-01-21T03:09:23.605Z,948.96
2018-01-21T03:10:23.543Z,948.97
2018-01-21T03:11:23.480Z,948.97
2018-01-21T03:12:23.418Z,949.00
2018-01-21T03:13:23.356Z,949.06
2018-01-21T03:14:23.293Z,949.09
2018-01-21T03:15:23.231Z,949.10
2018-01-21T03:16:23.168Z,949.13
2018-01-21T03:17:23.105Z,949.14
2018-01-21T03:18:23.044Z,949.17
2018-01-21T03:19:22.981Z,949.24
2018-01-21T03:20:22.919Z,949.19
2018-01-21T03:21:22.855Z,949.29
2018-01-21T03:22:22.795Z,949.28
2018-01-21T03:23:22.734Z,949.30
2018-01-21T03:24:22.671Z,949.33
2018-01-21T03:25:22.608Z,949.33
2018-01-21T03:26:22.546Z,949.31
2018-01-21T03:27:22.482Z,949.30
2018-01-21T03:28:22.421Z,949.38
2018-01-21T03:29:22.362Z,949.39
2018-01-21T03:30:22.299Z,949.37
2018-01-21T03:31:22.233Z,949.44
2018-01-21T03:32:22.173Z,949.46
2018-01-21T03:33:22.117Z,949.47
2018-01-21T03:34:22.047Z,949.45
2018-01-21T03:35:21.983Z,949.44
2018-01-21T03:36:21.923Z,949.49
2018-01-21T03:37:21.858Z,949.56
2018-01-21T03:38:21.797Z,949.51
2018-01-21T03:39:21.734Z,949.61
2018-01-21T03:40:21.676Z,949.59
2018-01-21T03:41:21.609Z,949.66
2018-01-21T03:42:21.547Z,949.63
2018-01-21T03:43:21.485Z,949.66
2018-01-21T03:44:21.423Z,949.67
2018-01-21T03:45:21.361Z,949.69
2018-01-21T03:46:21.299Z,949.78
2018-01-21T03:47:21.236Z,949.82
2018-01-21T03:48:21.175Z,949.86
2018-01-21T03:49:21.112Z,949.93
2018-01-21T03:50:21.053Z,949.97
2018-01-21T03:51:20.992Z,949.94
2018-01-21T03:52:20.924Z,949.96
2018-01-21T03:53:20.867Z,950.01
2018-01-21T03:54:20.803Z,949.99
2018-01-21T03:55:20.741Z,950.07
2018-01-21T03:56:20.679Z,950.06
2018-01-21T03:57:20.616Z,950.11
2018-01-21T03:58:20.551Z,950.11
2018-01-21T03:59:20.493Z,950.13
2018-01-21T04:00:20.430Z,950.11
2018-01-21T04:01:20.367Z,950.06
2018-01-21T04:02:20.305Z,950.04
2018-01-21T04:03:20.244Z,950.03
2018-01-21T04:04:20.180Z,950.11
2018-01-21T04:05:20.117Z,950.10
2018-01-21T04:06:20.056Z,950.09
2018-01-21T04:07:19.994Z,950.16
2018-01-21T04:08:19.932Z,950.23
2018-01-21T04:09:19.870Z,950.15
2018-01-21T04:10:19.807Z,950.17
2018-01-21T04:11:19.745Z,950.14
2018-01-21T04:12:19.684Z,950.13
2018-01-21T04:13:19.622Z,950.17
2018-01-21T04:14:19.560Z,950.22
2018-01-21T04:15:19.499Z,950.23
2018-01-21T04:16:19.436Z,950.28
2018-01-21T04:17:19.371Z,950.36
2018-01-21T04:18:19.311Z,950.35
2018-01-21T04:19:19.248Z,950.45
2018-01-21T04:20:19.193Z,950.39
2018-01-21T04:21:19.126Z,950.39
2018-01-21T04:22:19.064Z,950.40
2018-01-21T04:23:19.001Z,950.45
2018-01-21T04:24:18.940Z,950.49
2018-01-21T04:25:18.888Z,950.45
2018-01-21T04:26:18.815Z,950.43
2018-01-21T04:27:18.753Z,950.44
2018-01-21T04:28:18.692Z,950.49
2018-01-21T04:29:18.627Z,950.50
2018-01-21T04:30:18.566Z,950.51
2018-01-21T04:31:18.503Z,950.48
2018-01-21T04:32:18.442Z,950.54
2018-01-21T04:33:18.378Z,950.63
2018-01-21T04:34:18.316Z,950.64
2018-01-21T04:35:18.254Z,950.61
2018-01-21T04:36:18.194Z,950.69
2018-01-21T04:37:18.129Z,950.73
2018-01-21T04:38:18.067Z,950.77
2018-01-21T04:39:18.013Z,950.72
2018-01-21T04:40:17.944Z,950.76
2018-01-21T04:41:17.882Z,950.75
2018-01-21T04:42:17.821Z,950.75
2018-01-21T04:43:17.757Z,950.81
2018-01-21T04:44:17.696Z,950.84
2018-01-21T04:45:17.633Z,950.83
2018-01-21T04:46:17.576Z,950.80
2018-01-21T04:47:17.510Z,950.88
2018-01-21T04:48:17.450Z,950.92
2018-01-21T04:49:17.386Z,950.93
2018-01-21T04:50:17.326Z,950.93
2018-01-21T04:51:17.261Z,950.93
2018-01-21T04:52:17.200Z,950.99
2018-01-21T04:53:17.137Z,950.98
2018-01-21T04:54:17.075Z,951.03
2018-01-21T04:55:17.013Z,951.00
2018-01-21T04:56:16.955Z,951.04
2018-01-21T04:57:16.892Z,951.03
2018-01-21T04:58:16.828Z,951.07
2018-01-21T04:59:16.769Z,951.16
2018-01-21T05:00:16.706Z,951.20
2018-01-21T05:01:16.642Z,951.21
2018-01-21T05:02:16.581Z,951.23
2018-01-21T05:03:16.521Z,951.29
2018-01-21T05:04:16.455Z,951.30
2018-01-21T05:05:16.392Z,951.32
2018-01-21T05:06:16.331Z,951.35
2018-01-21T05:07:16.268Z,951.38
2018-01-21T05:08:16.210Z,951.39
2018-01-21T05:09:16.143Z,951.45
2018-01-21T05:10:16.084Z,951.47
2018-01-21T05:11:16.022Z,951.52
2018-01-21T05:12:15.961Z,951.52
2018-01-21T05:13:15.894Z,951.50
2018-01-21T05:14:15.836Z,951.50
2018-01-21T05:15:15.771Z,951.56
2018-01-21T05:16:15.711Z,951.56
2018-01-21T05:17:15.646Z,951.55
2018-01-21T05:18:15.583Z,951.61
2018-01-21T05:19:15.523Z,951.64
2018-01-21T05:20:15.461Z,951.64
2018-01-21T05:21:15.396Z,951.67
2018-01-21T05:22:15.338Z,951.64
2018-01-21T05:23:15.276Z,951.70
2018-01-21T05:24:15.211Z,951.72
2018-01-21T05:25:15.154Z,951.77
2018-01-21T05:26:15.085Z,951.80
2018-01-21T05:27:15.025Z,951.80
2018-01-21T05:28:14.963Z,951.77
2018-01-21T05:29:14.899Z,951.75
2018-01-21T05:30:14.836Z,951.82
2018-01-21T05:31:14.776Z,951.81
2018-01-21T05:32:14.713Z,951.84
2018-01-21T05:33:14.650Z,951.89
2018-01-21T05:34:14.589Z,951.87
2018-01-21T05:35:14.524Z,951.90
2018-01-21T05:36:14.463Z,951.91
2018-01-21T05:37:14.401Z,951.98
2018-01-21T05:38:14.338Z,951.95
2018-01-21T05:39:14.275Z,951.96
2018-01-21T05:40:14.215Z,952.05
2018-01-21T05:41:14.150Z,952.06
2018-01-21T05:42:14.089Z,952.06
2018-01-21T05:43:14.028Z,952.06
2018-01-21T05:44:13.965Z,952.11
2018-01-21T05:45:13.906Z,952.15
2018-01-21T05:46:13.843Z,952.23
2018-01-21T05:47:13.777Z,952.21
2018-01-21T05:48:13.716Z,952.29
2018-01-21T05:49:13.651Z,952.34
2018-01-21T05:50:13.590Z,952.39
2018-01-21T05:51:13.532Z,952.31
2018-01-21T05:52:13.465Z,952.29
2018-01-21T05:53:13.402Z,952.35
2018-01-21T05:54:13.343Z,952.30
2018-01-21T05:55:13.279Z,952.38
2018-01-21T05:56:13.216Z,952.39
2018-01-21T05:57:13.153Z,952.40
2018-01-21T05:58:13.090Z,952.41
2018-01-21T05:59:13.028Z,952.37
2018-01-21T06:00:12.966Z,952.39
2018-01-21T06:01:12.903Z,952.39
2018-01-21T06:02:12.840Z,952.42
2018-01-21T06:03:12.779Z,952.48
2018-01-21T06:04:12.718Z,952.53
2018-01-21T06:05:12.655Z,952.51
2018-01-21T06:06:12.593Z,952.51
2018-01-21T06:07:12.529Z,952.51
2018-01-21T06:08:12.465Z,952.53
2018-01-21T06:09:12.403Z,952.58
2018-01-21T06:10:12.343Z,952.57
2018-01-21T06:11:12.279Z,952.59
2018-01-21T06:12:12.218Z,952.59
2018-01-21T06:13:12.153Z,952.59
2018-01-21T06:14:12.093Z,952.67
2018-01-21T06:15:12.029Z,952.73
2018-01-21T06:16:11.967Z,952.73
2018-01-21T06:17:11.905Z,952.75
2018-01-21T06:18:11.842Z,952.78
2018-01-21T06:19:11.779Z,952.82
2018-01-21T06:20:11.717Z,952.82
2018-01-21T06:21:11.654Z,952.83
2018-01-21T06:22:11.593Z,952.89
2018-01-21T06:23:11.530Z,952.88
2018-01-21T06:24:11.462Z,952.96
2018-01-21T06:25:11.403Z,952.97
2018-01-21T06:26:11.345Z,952.97
2018-01-21T06:27:11.287Z,953.02
2018-01-21T06:28:11.216Z,953.05
2018-01-21T06:29:11.160Z,953.11
2018-01-21T06:30:11.091Z,953.10
2018-01-21T06:31:11.030Z,953.11
2018-01-21T06:32:10.973Z,953.14
2018-01-21T06:33:10.905Z,953.14
2018-01-21T06:34:10.842Z,953.11
2018-01-21T06:35:10.780Z,953.17
2018-01-21T06:36:10.718Z,953.18
2018-01-21T06:37:10.654Z,953.26
2018-01-21T06:38:10.592Z,953.33
2018-01-21T06:39:10.534Z,953.34
2018-01-21T06:40:10.474Z,953.34
2018-01-21T06:41:10.405Z,953.38
2018-01-21T06:42:10.342Z,953.38
2018-01-21T06:43:10.280Z,953.38
2018-01-21T06:44:10.220Z,953.41
2018-01-21T06:45:10.154Z,953.39
2018-01-21T06:46:10.093Z,953.40
2018-01-21T06:47:10.031Z,953.44
2018-01-21T06:48:09.968Z,953.43
2018-01-21T06:49:09.906Z,953.45
2018-01-21T06:50:09.845Z,953.47
2018-01-21T06:51:09.780Z,953.48
2018-01-21T06:52:09.721Z,953.52
2018-01-21T06:53:09.657Z,953.52
2018-01-21T06:54:09.598Z,953.48
2018-01-21T06:55:09.532Z,953.54
2018-01-21T06:56:09.469Z,953.59
2018-01-21T06:57:09.407Z,953.59
2018-01-21T06:58:09.343Z,953.64
2018-01-21T06:59:09.284Z,953.61
2018-01-21T07:00:09.221Z,953.70
2018-01-21T07:01:09.157Z,953.76
2018-01-21T07:02:09.097Z,953.67
2018-01-21T07:03:09.036Z,953.72
2018-01-21T07:04:08.970Z,953.71
2018-01-21T07:05:08.912Z,953.72
2018-01-21T07:06:08.852Z,953.76
2018-01-21T07:07:08.784Z,953.77
2018-01-21T07:08:08.728Z,953.76
2018-01-21T07:09:08.659Z,953.79
2018-01-21T07:10:08.598Z,953.92
2018-01-21T07:11:08.534Z,953.97
2018-01-21T07:12:08.471Z,953.86
2018-01-21T07:13:08.409Z,953.93
2018-01-21T07:14:08.344Z,953.89
2018-01-21T07:15:08.283Z,953.98
2018-01-21T07:16:08.221Z,953.95
2018-01-21T07:17:08.158Z,953.97
2018-01-21T07:18:08.097Z,953.99
2018-01-21T07:19:08.034Z,954.07
2018-01-21T07:20:07.972Z,954.08
2018-01-21T07:21:07.910Z,954.15
2018-01-21T07:22:07.850Z,954.13
2018-01-21T07:23:07.786Z,954.17
2018-01-21T07:24:07.721Z,954.12
2018-01-21T07:25:07.657Z,954.17
2018-01-21T07:26:07.595Z,954.19
2018-01-21T07:27:07.532Z,954.26
2018-01-21T07:28:07.469Z,954.25
2018-01-21T07:29:07.405Z,954.30
2018-01-21T07:30:07.347Z,954.38
2018-01-21T07:31:07.282Z,954.37
2018-01-21T07:32:07.218Z,954.41
2018-01-21T07:33:07.154Z,954.44
2018-01-21T07:34:07.090Z,954.48
2018-01-21T07:35:07.029Z,954.51
2018-01-21T07:36:06.966Z,954.55
2018-01-21T07:37:06.903Z,954.48
2018-01-21T07:38:06.841Z,954.57
2018-01-21T07:39:06.778Z,954.53
2018-01-21T07:40:06.715Z,954.61
2018-01-21T07:41:06.653Z,954.65
2018-01-21T07:42:06.589Z,954.65
2018-01-21T07:43:06.527Z,954.63
2018-01-21T07:44:06.464Z,954.76
2018-01-21T07:45:06.408Z,954.80
2018-01-21T07:46:06.340Z,954.76
2018-01-21T07:47:06.277Z,954.84
2018-01-21T07:48:06.216Z,954.82
2018-01-21T07:49:06.150Z,954.87
2018-01-21T07:50:06.088Z,954.83
2018-01-21T07:51:06.028Z,954.83
2018-01-21T07:52:05.964Z,954.95
2018-01-21T07:53:05.902Z,954.91
2018-01-21T07:54:05.837Z,954.95
2018-01-21T07:55:05.776Z,954.98
2018-01-21T07:56:05.711Z,955.03
2018-01-21T07:57:05.648Z,954.99
2018-01-21T07:58:05.584Z,955.04
2018-01-21T07:59:05.524Z,955.06
2018-01-21T08:00:05.485Z,955.11
2018-01-21T08:01:05.398Z,955.11
2018-01-21T08:02:05.364Z,955.18
2018-01-21T08:03:05.273Z,955.16
2018-01-21T08:04:05.213Z,955.12
2018-01-21T08:05:05.687Z,955.17
2018-01-21T08:06:05.084Z,955.16
2018-01-21T08:07:05.021Z,955.24
2018-01-21T08:08:04.958Z,955.20
2018-01-21T08:09:04.896Z,955.30
2018-01-21T08:10:04.833Z,955.27
2018-01-21T08:11:04.772Z,955.33
2018-01-21T08:12:04.709Z,955.26
2018-01-21T08:13:04.645Z,955.30
2018-01-21T08:14:04.589Z,955.33
2018-01-21T08:15:04.521Z,955.36
2018-01-21T08:16:04.459Z,955.41
2018-01-21T08:17:04.396Z,955.37
2018-01-21T08:18:04.334Z,955.37
2018-01-21T08:19:04.272Z,955.49
2018-01-21T08:20:04.214Z,955.51
2018-01-21T08:21:04.145Z,955.51
2018-01-21T08:22:04.083Z,955.52
2018-01-21T08:23:04.021Z,955.55
2018-01-21T08:24:03.958Z,955.56
2018-01-21T08:25:03.894Z,955.64
2018-01-21T08:26:03.829Z,955.66
2018-01-21T08:27:03.770Z,955.65
2018-01-21T08:28:03.710Z,955.69
2018-01-21T08:29:03.703Z,955.73
2018-01-21T08:30:03.610Z,955.74
2018-01-21T08:31:03.572Z,955.77
2018-01-21T08:32:03.458Z,955.76
2018-01-21T08:33:03.399Z,955.76
2018-01-21T08:34:03.332Z,955.81
2018-01-21T08:35:03.271Z,955.86
2018-01-21T08:36:03.212Z,955.83
2018-01-21T08:37:03.146Z,955.89
2018-01-21T08:38:03.085Z,955.91
2018-01-21T08:39:03.022Z,955.86
2018-01-21T08:40:02.964Z,955.84
2018-01-21T08:41:02.897Z,955.87
2018-01-21T08:42:02.834Z,955.91
2018-01-21T08:43:02.774Z,956.00
2018-01-21T08:44:02.709Z,956.04
2018-01-21T08:45:02.648Z,956.05
2018-01-21T08:46:02.584Z,956.10
2018-01-21T08:47:02.523Z,956.12
2018-01-21T08:48:02.460Z,956.16
2018-01-21T08:49:02.398Z,956.12
2018-01-21T08:50:02.335Z,956.14
2018-01-21T08:51:02.272Z,956.16
2018-01-21T08:52:02.216Z,956.17
2018-01-21T08:53:02.147Z,956.19
2018-01-21T08:54:02.086Z,956.23
2018-01-21T08:55:02.022Z,956.30
2018-01-21T08:56:01.965Z,956.32
2018-01-21T08:57:01.898Z,956.34
2018-01-21T08:58:01.835Z,956.40
2018-01-21T08:59:01.778Z,956.40
2018-01-21T09:00:01.732Z,956.46
2018-01-21T09:01:01.643Z,956.44
2018-01-21T09:02:01.585Z,956.48
2018-01-21T09:03:01.525Z,956.57
2018-01-21T09:04:01.461Z,956.55
2018-01-21T09:05:01.401Z,956.58
2018-01-21T09:06:01.337Z,956.64
2018-01-21T09:07:01.274Z,956.66
2018-01-21T09:08:01.211Z,956.71
2018-01-21T09:09:01.148Z,956.69
2018-01-21T09:10:01.087Z,956.71
2018-01-21T09:11:01.024Z,956.69
2018-01-21T09:12:00.963Z,956.73
2018-01-21T09:13:00.901Z,956.76
2018-01-21T09:14:00.835Z,956.72
2018-01-21T09:15:00.773Z,956.80
2018-01-21T09:16:00.712Z,956.75
2018-01-21T09:17:00.651Z,956.80
2018-01-21T09:18:00.587Z,956.84
2018-01-21T09:19:00.525Z,956.82
2018-01-21T09:20:00.466Z,956.82
2018-01-21T09:21:00.398Z,956.86
2018-01-21T09:22:00.336Z,956.91
2018-01-21T09:23:00.276Z,956.86
2018-01-21T09:24:00.214Z,956.95
2018-01-21T09:25:00.151Z,956.98
2018-01-21T09:26:00.088Z,956.96
2018-01-21T09:27:00.028Z,956.98
2018-01-21T09:27:59.962Z,956.99
2018-01-21T09:28:59.901Z,957.03
2018-01-21T09:29:59.839Z,957.05
2018-01-21T09:30:59.777Z,957.05
2018-01-21T09:31:59.714Z,957.12
2018-01-21T09:32:59.651Z,957.22
2018-01-21T09:33:59.590Z,957.22
2018-01-21T09:34:59.528Z,957.23
2018-01-21T09:35:59.470Z,957.20
2018-01-21T09:36:59.403Z,957.22
2018-01-21T09:37:59.340Z,957.28
2018-01-21T09:38:59.282Z,957.33
2018-01-21T09:39:59.219Z,957.33
2018-01-21T09:40:59.154Z,957.39
2018-01-21T09:41:59.114Z,957.46
2018-01-21T09:42:59.030Z,957.47
2018-01-21T09:43:59.044Z,957.47
2018-01-21T09:44:58.906Z,957.48
2018-01-21T09:45:58.883Z,957.55
2018-01-21T09:46:58.781Z,957.60
2018-01-21T09:47:58.719Z,957.65
2018-01-21T09:48:58.655Z,957.61
2018-01-21T09:49:58.597Z,957.66
2018-01-21T09:50:58.533Z,957.75
2018-01-21T09:51:58.473Z,957.79
2018-01-21T09:52:58.407Z,957.83
2018-01-21T09:53:58.345Z,957.77
2018-01-21T09:54:58.285Z,957.68
2018-01-21T09:55:58.224Z,957.76
2018-01-21T09:56:58.160Z,957.85
2018-01-21T09:57:58.096Z,957.80
2018-01-21T09:58:58.035Z,957.88
2018-01-21T09:59:57.973Z,957.96
2018-01-21T10:00:57.912Z,957.94
2018-01-21T10:01:57.851Z,958.04
2018-01-21T10:02:57.787Z,958.06
2018-01-21T10:03:57.725Z,958.12
2018-01-21T10:04:57.662Z,958.09
2018-01-21T10:05:57.602Z,958.11
2018-01-21T10:06:57.544Z,958.09
2018-01-21T10:07:57.477Z,958.11
2018-01-21T10:08:57.410Z,958.11
2018-01-21T10:09:57.349Z,958.17
2018-01-21T10:10:57.288Z,958.16
2018-01-21T10:11:57.223Z,958.17
2018-01-21T10:12:57.165Z,958.21
2018-01-21T10:13:57.101Z,958.17
2018-01-21T10:14:57.039Z,958.25
2018-01-21T10:15:56.978Z,958.25
2018-01-21T10:16:56.914Z,958.27
2018-01-21T10:17:56.852Z,958.22
2018-01-21T10:18:56.791Z,958.25
2018-01-21T10:19:56.738Z,958.22
2018-01-21T10:20:56.666Z,958.21
2018-01-21T10:21:56.604Z,958.28
2018-01-21T10:22:56.541Z,958.30
2018-01-21T10:23:56.478Z,958.22
2018-01-21T10:24:56.417Z,958.22
2018-01-21T10:25:56.354Z,958.26
2018-01-21T10:26:56.345Z,958.22
2018-01-21T10:27:56.231Z,958.24
2018-01-21T10:28:56.168Z,958.21
2018-01-21T10:29:56.108Z,958.27
2018-01-21T10:30:56.044Z,958.26
2018-01-21T10:31:55.988Z,958.31
2018-01-21T10:32:55.922Z,958.25
2018-01-21T10:33:55.860Z,958.18
2018-01-21T10:34:55.796Z,958.22
2018-01-21T10:35:55.777Z,958.27
2018-01-21T10:36:55.669Z,958.27
2018-01-21T10:37:55.607Z,958.30
2018-01-21T10:38:55.547Z,958.41
2018-01-21T10:39:55.484Z,958.40
2018-01-21T10:40:55.422Z,958.45
2018-01-21T10:41:55.360Z,958.44
2018-01-21T10:42:55.298Z,958.48
2018-01-21T10:43:55.235Z,958.52
2018-01-21T10:44:55.175Z,958.59
2018-01-21T10:45:55.113Z,958.64
2018-01-21T10:46:55.048Z,958.68
2018-01-21T10:47:54.989Z,958.69
2018-01-21T10:48:54.923Z,958.68
2018-01-21T10:49:54.862Z,958.70
2018-01-21T10:50:54.801Z,958.77
2018-01-21T10:51:54.738Z,958.83
2018-01-21T10:52:54.677Z,958.82
2018-01-21T10:53:54.615Z,958.80
2018-01-21T10:54:54.552Z,958.67
2018-01-21T10:55:54.491Z,958.61
2018-01-21T10:56:54.426Z,958.58
2018-01-21T10:57:54.364Z,958.55
2018-01-21T10:58:54.304Z,958.56
2018-01-21T10:59:54.246Z,958.69
2018-01-21T11:00:54.178Z,958.70
2018-01-21T11:01:54.117Z,958.71
2018-01-21T11:02:54.053Z,958.68
2018-01-21T11:03:54.002Z,958.66
2018-01-21T11:04:53.937Z,958.64
2018-01-21T11:05:53.865Z,958.70
2018-01-21T11:06:53.822Z,958.71
2018-01-21T11:07:53.744Z,958.72
2018-01-21T11:08:53.678Z,958.80
2018-01-21T11:09:53.617Z,958.77
2018-01-21T11:10:53.554Z,958.79
2018-01-21T11:11:53.492Z,958.78
2018-01-21T11:12:53.430Z,958.73
2018-01-21T11:13:53.373Z,958.70
2018-01-21T11:14:53.308Z,958.69
2018-01-21T11:15:53.279Z,958.71
2018-01-21T11:16:53.183Z,958.76
2018-01-21T11:17:53.122Z,958.76
2018-01-21T11:18:53.061Z,958.74
2018-01-21T11:19:52.997Z,958.78
2018-01-21T11:20:52.930Z,958.76
2018-01-21T11:21:52.868Z,958.79
2018-01-21T11:22:52.805Z,958.76
2018-01-21T11:23:52.744Z,958.72
2018-01-21T11:24:52.680Z,958.72
2018-01-21T11:25:52.622Z,958.72
2018-01-21T11:26:52.557Z,958.76
2018-01-21T11:27:52.496Z,958.78
2018-01-21T11:28:52.433Z,958.82
2018-01-21T11:29:52.369Z,958.84
2018-01-21T11:30:52.308Z,958.84
2018-01-21T11:31:52.290Z,958.87
2018-01-21T11:32:52.182Z,958.96
2018-01-21T11:33:52.122Z,958.99
2018-01-21T11:34:52.058Z,959.01
2018-01-21T11:35:51.997Z,959.05
2018-01-21T11:36:51.935Z,959.00
2018-01-21T11:37:51.872Z,959.03
2018-01-21T11:38:51.813Z,959.02
2018-01-21T11:39:51.753Z,959.01
2018-01-21T11:40:51.688Z,959.07
2018-01-21T11:41:51.627Z,959.06
2018-01-21T11:42:51.566Z,959.07
2018-01-21T11:43:51.507Z,959.05
2018-01-21T11:44:51.442Z,959.08
2018-01-21T11:45:51.378Z,959.13
2018-01-21T11:46:51.314Z,959.11
2018-01-21T11:47:51.253Z,959.15
2018-01-21T11:48:51.190Z,959.12
2018-01-21T11:49:51.128Z,959.16
2018-01-21T11:50:51.068Z,959.14
2018-01-21T11:51:51.006Z,959.19
2018-01-21T11:52:50.942Z,959.21
2018-01-21T11:53:50.881Z,959.21
2018-01-21T11:54:50.820Z,959.18
2018-01-21T11:55:50.763Z,959.20
2018-01-21T11:56:50.695Z,959.19
2018-01-21T11:57:50.639Z,959.14
2018-01-21T11:58:50.571Z,959.17
2018-01-21T11:59:50.508Z,959.11
2018-01-21T12:00:50.445Z,959.12
2018-01-21T12:01:50.385Z,959.11
2018-01-21T12:02:50.322Z,959.12
2018-01-21T12:03:50.261Z,959.13
2018-01-21T12:04:50.204Z,959.13
2018-01-21T12:05:50.138Z,959.14
2018-01-21T12:06:50.137Z,959.14
2018-01-21T12:07:50.014Z,959.19
2018-01-21T12:08:49.952Z,959.22
2018-01-21T12:09:49.889Z,959.20
2018-01-21T12:10:49.828Z,959.18
2018-01-21T12:11:49.769Z,959.20
2018-01-21T12:12:49.702Z,959.20
2018-01-21T12:13:49.641Z,959.22
2018-01-21T12:14:49.582Z,959.19
2018-01-21T12:15:49.518Z,959.23
2018-01-21T12:16:49.457Z,959.22
2018-01-21T12:17:49.396Z,959.28
2018-01-21T12:18:49.333Z,959.25
2018-01-21T12:19:49.271Z,959.24
2018-01-21T12:20:49.212Z,959.22
2018-01-21T12:21:49.148Z,959.24
2018-01-21T12:22:49.092Z,959.22
2018-01-21T12:23:49.023Z,959.22
2018-01-21T12:24:48.963Z,959.22
2018-01-21T12:25:48.901Z,959.22
2018-01-21T12:26:48.844Z,959.23
2018-01-21T12:27:48.780Z,959.20